WEATHER DATA

YESTERDAY
Time Temp. Dewp. Hum. Bar. 1h Prec. 24h Prec.
00:03 10.3 7.2 81 1022.3 3.6470 0.1000
00:14 10.1 7 81 1022.4 3.0850 0.4000
00:24 10 6.9 81 1022.5 1.9620 0.7000
00:33 9.9 6.6 80 1022.7 1.4010 0.7000
00:44 9.6 6.1 79 1022.9 1.2610 0.8000
00:54 9.5 6.2 80 1023.1 0.9800 1.0000
01:04 9.3 6 80 1023.3 0.9800 1.3000
01:13 9.1 6 81 1023.6 1.1210 1.7000
01:24 8.9 5.6 80 1023.8 1.2610 2.0000
01:34 8.6 5.2 79 1024 1.4010 2.1000
01:44 8.4 5 79 1024.2 1.5420 2.5000
01:54 8.4 5.2 80 1024.3 1.9630 3.1000
02:04 8.2 4.8 79 1024.4 1.9630 3.5000
02:14 8 4.8 80 1024.4 1.9630 3.8000
02:24 7.9 4.7 80 1024.7 1.9630 3.9000
02:35 7.7 4.5 80 1024.7 1.8230 4.1000
02:45 7.5 4.1 79 1024.8 1.4010 4.4000
02:54 7.4 4 79 1024.8 1.2610 4.6000
03:04 7.3 4.1 80 1024.7 1.2610 4.9000
03:15 7.2 3.8 79 1024.8 1.2610 5.2000
03:25 7 3.6 79 1024.9 1.6820 5.6000
03:35 6.8 3.6 80 1024.9 1.5420 5.8000
03:45 6.8 3.8 81 1024.9 1.4020 5.8000
03:55 6.7 3.5 80 1025.1 0.9810 5.8000
04:05 6.6 3.4 80 1025.1 0.7010 5.8000
04:15 6.7 3.5 80 1025.2 0.2800 5.8000
04:26 6.4 3.4 81 1025.2 0.0000 5.8000
04:35 6.3 3.5 82 1025.4 0.0000 5.8000
04:45 6.1 3.4 83 1025.1 0.0000 5.8000
04:56 6.1 3.4 83 1025.2 0.0000 5.8000
05:06 6.1 3.4 83 1025.2 0.0000 5.8000
05:16 6.2 3.5 83 1025.2 0.1400 5.9000
05:25 6.3 3.8 84 1025.1 0.1400 5.9000
05:36 6.3 3.6 83 1025.1 0.1400 5.9000
05:46 6.2 3.5 83 1025.1 0.1400 5.9000
05:56 6.3 3.6 83 1024.9 0.1400 5.9000
06:06 6.2 3.5 83 1024.9 0.1400 5.9000
06:16 6.1 3.4 83 1024.9 0.0000 5.9000
06:26 6.2 3.7 84 1025 0.0000 5.9000
06:36 6.1 3.6 84 1025.1 0.0000 5.9000
06:47 6.2 3.9 85 1025.2 0.0000 5.9000
06:57 6.4 4.1 85 1025 0.0000 5.9000
07:06 6.5 4.2 85 1025.3 0.0000 5.9000
07:17 6.4 3.9 84 1025.2 0.0000 5.9000
07:27 6.4 3.9 84 1025.3 0.0000 5.9000
07:37 6.3 3.8 84 1025.3 0.0000 5.9000
07:46 6.3 3.8 84 1025.5 0.0000 5.9000
07:57 6.3 3.8 84 1025.5 0.0000 5.9000
08:07 6.2 3.7 84 1025.5 0.0000 5.9000
08:17 6.2 3.7 84 1025.6 0.0000 5.9000
08:27 6.3 3.8 84 1025.5 0.0000 5.9000
08:37 6.3 4 85 1025.5 0.0000 5.9000
08:47 6.4 4.1 85 1025.5 0.0000 5.9000
08:57 6.6 4.3 85 1025.6 0.0000 5.9000
09:08 6.6 4.3 85 1025.6 0.0000 5.9000
09:18 6.7 4.4 85 1025.6 0.0000 5.9000
09:27 6.9 4.4 84 1025.7 0.0000 5.9000
09:37 6.9 4.2 83 1025.8 0.0000 5.9000
09:48 6.9 4.2 83 1025.8 0.0000 5.9000
09:58 7.1 4.4 83 1025.9 0.0000 5.9000
10:08 7.2 4.5 83 1026 0.0000 5.9000
10:18 7.3 4.4 82 1026 0.0000 5.9000
10:28 7.5 4.6 82 1026 0.0000 5.9000
10:38 7.6 4.4 80 1026.1 0.0000 5.9000
10:48 7.8 4.4 79 1026.1 0.0000 5.9000
10:59 7.9 4.1 77 1026.2 0.0000 5.9000
11:08 8 4.4 78 1026.2 0.0000 5.9000
11:18 8.3 4.3 76 1026.2 0.0000 5.9000
11:29 8.6 4.8 77 1026.4 0.0000 5.9000
11:39 8.8 4.8 76 1026.4 0.0000 5.9000
11:48 9 4.8 75 1026.4 0.0000 5.9000
11:58 9.2 4.6 73 1026.4 0.0000 5.9000
12:09 9.2 4.4 72 1026.4 0.0000 5.9000
12:19 9.6 4.6 71 1026.3 0.0000 5.9000
12:29 10.3 5.3 71 1026.3 0.0000 5.9000
12:39 10.6 4.9 68 1026.3 0.0000 5.9000
12:49 11.1 5.2 67 1026.2 0.0000 5.9000
12:59 11.3 5 65 1026.2 0.0000 5.9000
13:09 11.6 4.6 62 1026.1 0.0000 5.9000
13:20 11.2 3.5 59 1026.2 0.0000 5.9000
13:29 10.9 3.4 60 1026.2 0.0000 5.9000
13:39 10.4 2.5 58 1026 0.0000 5.9000
13:50 10 1.9 57 1026.2 0.0000 5.9000
14:00 9.8 1.7 57 1026.4 0.0000 5.9000
14:09 9.7 1.8 58 1026.5 0.0000 5.9000
14:19 9.8 1.7 57 1026.4 0.0000 5.9000
14:30 9.7 1.6 57 1026.5 0.0000 5.9000
14:40 9.6 1.5 57 1026.6 0.0000 5.9000
14:50 9.4 1.1 56 1026.6 0.0000 5.9000
15:00 9.5 1.2 56 1026.6 0.0000 5.9000
15:10 9.6 1.3 56 1026.7 0.0000 5.9000
15:20 9.7 1.1 55 1026.7 0.0000 5.9000
15:30 9.8 1.2 55 1026.5 0.0000 5.9000
15:41 9.8 1.2 55 1026.6 0.0000 5.9000
15:50 9.7 0.6 53 1026.7 0.0000 5.9000
16:00 9.6 0.8 54 1026.8 0.0000 5.9000
16:11 9.6 1 55 1026.7 0.0000 5.9000
16:21 9.6 0.8 54 1026.8 0.0000 5.9000
16:40 9.6 1 55 1026.8 0.0000 5.9000
16:51 9.6 0.8 54 1026.7 0.0000 5.9000
17:01 9.6 1 55 1026.8 0.0000 5.9000
17:11 9.6 0.5 53 1026.8 0.0000 5.9000
17:21 9.6 0.8 54 1026.8 0.0000 5.9000
17:31 9.8 0.9 54 1026.9 0.0000 5.9000
17:41 10.1 0.7 52 1026.8 0.0000 5.9000
17:51 10.8 1.6 53 1026.8 0.0000 5.9000
18:02 11.3 1 49 1026.8 0.0000 5.9000
18:11 11 0.1 47 1027 0.0000 5.9000
18:21 10.4 -0.1 48 1027 0.0000 5.9000
18:31 10.2 0 49 1027 0.0000 5.9000
18:42 10 0.1 50 1027 0.0000 5.9000
18:52 9.8 -0.1 50 1027 0.0000 5.9000
19:01 9.6 -0.3 50 1027.1 0.0000 5.9000
19:12 9.5 -0.3 50 1027.2 0.0000 5.9000
19:22 9.4 -0.4 50 1027.1 0.0000 5.9000
19:32 9.3 -0.5 50 1027.2 0.0000 5.9000
19:42 9.1 -0.7 50 1027.2 0.0000 5.9000
20:02 8.9 -0.8 50 1027.4 0.0000 5.9000
20:12 8.8 -0.9 50 1027.4 0.0000 5.9000
20:32 8.6 -0.8 51 1027.6 0.0000 5.9000
20:42 8.5 -0.9 51 1027.7 0.0000 5.9000
20:52 8.4 -1 51 1027.8 0.0000 5.9000
21:03 8.3 -0.9 52 1027.9 0.0000 5.9000
21:13 8.3 -1.1 51 1028.1 0.0000 5.9000
21:23 8.2 -1.2 51 1028.1 0.0000 5.9000
21:33 8.2 -1.4 50 1028.2 0.0000 5.9000
21:43 8.2 -1.4 50 1028.3 0.0000 5.9000
21:53 8.1 -1.5 50 1028.3 0.0000 5.9000
22:03 8.1 -1.5 50 1028.4 0.0000 5.9000
22:13 8 -1.3 51 1028.3 0.0000 5.9000
22:23 7.9 -1.4 51 1028.4 0.0000 5.9000
22:33 7.9 -1.2 52 1028.4 0.0000 5.9000
22:44 7.8 -1.3 52 1028.4 0.0000 5.9000
22:54 7.7 -1.3 52 1028.6 0.0000 5.9000
23:03 7.6 -1.2 53 1028.5 0.0000 5.9000
23:13 7.5 -1.3 53 1028.6 0.0000 5.9000
23:24 7.4 -1.1 54 1028.4 0.0000 5.9000
23:34 7.2 -1.1 55 1028.4 0.0000 5.9000
23:44 7 -1.2 55 1028.4 0.0000 5.9000
23:54 6.9 -1.1 56 1028.5 0.0000

DAY STATISTIC

2021-04-12
TEMPERATURE
AVERAGE
8.3
HIGH
11.6
13:09
LOW
6.1
04:45
PRESSURE
AVERAGE
1026.1
HIGH
1028.6
22:54
LOW
1022.3
00:03
DEWPOINT
AVERAGE
2.5
HIGH
7.2
00:03
LOW
-1.5
21:53
HUMIDITY
AVERAGE
68
HIGH
85
06:47
LOW
47
18:11
PRECIPITATION
RAIN HOUR
3.6
RAIN DAY
5.9
TEMPERATURE (°C)
LOW
6.1
HIGH
11.6
AVERAGE
8.3
PRESSURE (hpa)
LOW
1022.3
HIGH
1028.6
AVERAGE
1026.1
DEVICE